createdAt,value
2022-09-25T00:00:47.529Z,86.32
2022-09-25T00:03:14.502Z,86.61
2022-09-25T00:05:41.636Z,86.75
2022-09-25T00:08:08.532Z,86.53
2022-09-25T00:10:35.095Z,85.76
2022-09-25T00:13:01.390Z,85.92
2022-09-25T00:15:27.719Z,85.03
2022-09-25T00:17:54.071Z,83.89
2022-09-25T00:20:26.568Z,83.46
2022-09-25T00:22:54.223Z,83.48
2022-09-25T00:25:20.552Z,83.43
2022-09-25T00:27:48.299Z,82.90
2022-09-25T00:30:16.469Z,83.33
2022-09-25T00:32:43.293Z,82.40
2022-09-25T00:35:09.728Z,81.72
2022-09-25T00:37:36.838Z,81.99
2022-09-25T00:40:06.743Z,81.46
2022-09-25T00:42:33.098Z,81.79
2022-09-25T00:45:04.818Z,81.34
2022-09-25T00:47:42.976Z,81.09
2022-09-25T00:50:19.143Z,82.12
2022-09-25T00:52:46.422Z,81.98
2022-09-25T00:55:13.631Z,81.91
2022-09-25T00:57:40.657Z,81.66
2022-09-25T01:00:09.130Z,82.44
2022-09-25T01:02:39.438Z,82.51
2022-09-25T01:05:07.674Z,82.72
2022-09-25T01:07:36.590Z,83.67
2022-09-25T01:10:04.747Z,84.47
2022-09-25T01:12:31.064Z,83.96
2022-09-25T01:14:57.353Z,84.18
2022-09-25T01:17:26.467Z,84.03
2022-09-25T01:20:08.086Z,84.95
2022-09-25T01:22:53.114Z,85.09
2022-09-25T01:25:19.414Z,85.06
2022-09-25T01:28:01.053Z,84.85
2022-09-25T01:30:31.031Z,85.73
2022-09-25T01:33:02.547Z,85.61
2022-09-25T01:35:33.574Z,85.39
2022-09-25T01:38:23.056Z,85.71
2022-09-25T01:40:55.712Z,86.02
2022-09-25T01:43:22.430Z,86.76
2022-09-25T01:45:51.764Z,86.28
2022-09-25T01:48:20.324Z,86.01
2022-09-25T01:50:49.753Z,85.89
2022-09-25T01:53:18.314Z,86.27
2022-09-25T01:55:47.346Z,86.32
2022-09-25T01:58:16.367Z,86.44
2022-09-25T02:00:44.605Z,87.02
2022-09-25T02:03:14.156Z,87.07
2022-09-25T02:05:46.657Z,86.41
2022-09-25T02:08:17.147Z,86.55
2022-09-25T02:10:45.874Z,86.36
2022-09-25T02:13:14.302Z,85.94
2022-09-25T02:15:51.213Z,85.19
2022-09-25T02:18:37.221Z,85.24
2022-09-25T02:21:12.638Z,83.53
2022-09-25T02:23:45.028Z,83.66
2022-09-25T02:26:15.941Z,82.72
2022-09-25T02:28:42.907Z,82.61
2022-09-25T02:31:12.459Z,82.37
2022-09-25T02:33:39.026Z,83.12
2022-09-25T02:36:06.804Z,81.67
2022-09-25T02:38:34.184Z,82.89
2022-09-25T02:41:15.752Z,81.42
2022-09-25T02:43:49.649Z,81.00
2022-09-25T02:46:16.038Z,81.45
2022-09-25T02:48:45.140Z,81.48
2022-09-25T02:51:27.272Z,80.92
2022-09-25T02:54:13.908Z,81.29
2022-09-25T02:56:43.494Z,81.25
2022-09-25T02:59:15.681Z,81.15
2022-09-25T03:01:42.882Z,82.53
2022-09-25T03:04:09.700Z,82.05
2022-09-25T03:06:37.201Z,82.55
2022-09-25T03:09:04.298Z,81.83
2022-09-25T03:11:30.641Z,83.52
2022-09-25T03:13:57.087Z,83.12
2022-09-25T03:16:30.510Z,83.01
2022-09-25T03:18:56.846Z,83.17
2022-09-25T03:21:23.147Z,82.38
2022-09-25T03:23:49.484Z,83.10
2022-09-25T03:26:15.764Z,83.52
2022-09-25T03:28:42.121Z,83.80
2022-09-25T03:31:10.981Z,83.66
2022-09-25T03:33:38.616Z,83.81
2022-09-25T03:36:07.447Z,83.34
2022-09-25T03:38:34.046Z,84.07
2022-09-25T03:41:00.780Z,83.62
2022-09-25T03:43:27.451Z,84.01
2022-09-25T03:45:53.816Z,84.89
2022-09-25T03:48:20.955Z,85.09
2022-09-25T03:50:49.773Z,85.21
2022-09-25T03:53:18.110Z,86.21
2022-09-25T03:55:47.241Z,86.49
2022-09-25T03:58:14.742Z,86.41
2022-09-25T04:00:41.179Z,86.49
2022-09-25T04:03:07.612Z,86.62
2022-09-25T04:05:34.853Z,86.18
2022-09-25T04:08:01.649Z,86.81
2022-09-25T04:10:27.995Z,87.18
2022-09-25T04:12:55.447Z,86.70
2022-09-25T04:15:24.939Z,86.50
2022-09-25T04:17:55.327Z,86.39
2022-09-25T04:20:21.629Z,85.02
2022-09-25T04:22:48.035Z,84.92
2022-09-25T04:25:14.692Z,84.92
2022-09-25T04:27:41.115Z,84.54
2022-09-25T04:30:07.762Z,84.72
2022-09-25T04:32:52.527Z,84.48
2022-09-25T04:35:18.819Z,85.20
2022-09-25T04:37:45.091Z,84.76
2022-09-25T04:40:11.524Z,84.13
2022-09-25T04:42:37.905Z,84.14
2022-09-25T04:45:04.326Z,83.29
2022-09-25T04:47:30.607Z,83.11
2022-09-25T04:49:57.143Z,83.10
2022-09-25T04:52:23.449Z,84.01
2022-09-25T04:54:49.749Z,84.20
2022-09-25T04:57:32.641Z,84.26
2022-09-25T05:00:05.231Z,84.90
2022-09-25T05:02:31.760Z,84.86
2022-09-25T05:04:58.190Z,83.40
2022-09-25T05:07:24.606Z,83.85
2022-09-25T05:09:50.937Z,83.01
2022-09-25T05:12:17.222Z,83.20
2022-09-25T05:14:43.993Z,83.71
2022-09-25T05:17:11.408Z,83.83
2022-09-25T05:19:38.207Z,84.69
2022-09-25T05:22:04.697Z,84.56
2022-09-25T05:24:34.997Z,84.36
2022-09-25T05:27:01.366Z,83.98
2022-09-25T05:29:27.881Z,83.74
2022-09-25T05:31:54.315Z,83.25
2022-09-25T05:34:20.993Z,83.81
2022-09-25T05:36:47.330Z,84.19
2022-09-25T05:39:14.594Z,84.86
2022-09-25T05:41:41.303Z,84.90
2022-09-25T05:44:09.604Z,84.11
2022-09-25T05:46:36.645Z,83.71
2022-09-25T05:49:03.340Z,84.84
2022-09-25T05:51:29.645Z,85.11
2022-09-25T05:53:56.132Z,85.71
2022-09-25T05:56:24.158Z,85.99
2022-09-25T05:58:51.009Z,85.93
2022-09-25T06:01:17.498Z,86.19
2022-09-25T06:03:43.860Z,86.75
2022-09-25T06:06:10.313Z,86.84
2022-09-25T06:08:36.745Z,87.18
2022-09-25T06:11:03.910Z,86.56
2022-09-25T06:13:32.101Z,86.91
2022-09-25T06:15:58.695Z,85.94
2022-09-25T06:18:25.643Z,85.76
2022-09-25T06:20:52.108Z,84.79
2022-09-25T06:23:18.777Z,84.79
2022-09-25T06:25:45.204Z,84.23
2022-09-25T06:28:12.360Z,84.55
2022-09-25T06:30:38.899Z,83.71
2022-09-25T06:33:09.479Z,84.50
2022-09-25T06:35:36.764Z,84.08
2022-09-25T06:38:03.783Z,84.23
2022-09-25T06:40:31.288Z,83.88
2022-09-25T06:42:58.417Z,84.10
2022-09-25T06:45:26.732Z,84.32
2022-09-25T06:48:13.649Z,84.66
2022-09-25T06:50:41.905Z,85.46
2022-09-25T06:53:08.453Z,85.01
2022-09-25T06:55:37.650Z,86.60
2022-09-25T06:58:05.430Z,87.17
2022-09-25T07:00:32.634Z,87.73
2022-09-25T07:03:18.345Z,86.89
2022-09-25T07:05:45.289Z,87.32
2022-09-25T07:08:13.944Z,87.53
2022-09-25T07:10:45.069Z,86.81
2022-09-25T07:13:12.171Z,86.49
2022-09-25T07:15:38.927Z,88.26
2022-09-25T07:18:05.349Z,87.16
2022-09-25T07:20:32.286Z,87.72
2022-09-25T07:23:01.488Z,87.94
2022-09-25T07:25:27.879Z,87.98
2022-09-25T07:27:54.403Z,88.61
2022-09-25T07:30:20.787Z,88.23
2022-09-25T07:32:47.128Z,89.02
2022-09-25T07:35:13.560Z,86.92
2022-09-25T07:37:39.896Z,86.70
2022-09-25T07:40:06.584Z,86.22
2022-09-25T07:42:33.044Z,86.07
2022-09-25T07:44:59.378Z,86.73
2022-09-25T07:47:25.932Z,86.13
2022-09-25T07:49:52.262Z,86.79
2022-09-25T07:52:18.557Z,86.70
2022-09-25T07:54:44.936Z,86.78
2022-09-25T07:57:13.183Z,86.16
2022-09-25T07:59:39.704Z,85.45
2022-09-25T08:02:06.477Z,85.57
2022-09-25T08:04:32.827Z,86.36
2022-09-25T08:07:00.175Z,85.16
2022-09-25T08:09:26.504Z,86.46
2022-09-25T08:11:53.422Z,83.88
2022-09-25T08:14:24.500Z,83.33
2022-09-25T08:16:55.770Z,83.37
2022-09-25T08:19:23.461Z,83.69
2022-09-25T08:21:50.407Z,84.46
2022-09-25T08:24:16.727Z,83.24
2022-09-25T08:26:43.042Z,82.42
2022-09-25T08:29:09.461Z,82.58
2022-09-25T08:31:35.990Z,82.58
2022-09-25T08:34:15.286Z,83.61
2022-09-25T08:36:50.024Z,82.38
2022-09-25T08:39:17.021Z,81.85
2022-09-25T08:41:43.316Z,82.11
2022-09-25T08:44:28.405Z,82.19
2022-09-25T08:47:19.422Z,79.86
2022-09-25T08:49:50.130Z,80.41
2022-09-25T08:52:18.294Z,80.32
2022-09-25T08:54:45.815Z,81.38
2022-09-25T08:57:15.177Z,83.42
2022-09-25T08:59:44.043Z,81.78
2022-09-25T09:02:16.372Z,80.94
2022-09-25T09:04:51.609Z,81.40
2022-09-25T09:07:28.144Z,82.46
2022-09-25T09:10:02.856Z,81.44
2022-09-25T09:12:35.570Z,79.61
2022-09-25T09:15:24.969Z,80.40
2022-09-25T09:17:52.736Z,80.32
2022-09-25T09:20:22.630Z,80.11
2022-09-25T09:22:50.934Z,79.88
2022-09-25T09:25:37.598Z,79.30
2022-09-25T09:28:06.929Z,80.45
2022-09-25T09:30:38.502Z,81.21
2022-09-25T09:33:20.072Z,82.47
2022-09-25T09:35:59.707Z,80.97
2022-09-25T09:38:28.925Z,82.32
2022-09-25T09:40:55.300Z,80.69
2022-09-25T09:43:34.589Z,81.43
2022-09-25T09:46:01.103Z,80.06
2022-09-25T09:48:41.927Z,80.14
2022-09-25T09:51:30.953Z,81.53
2022-09-25T09:54:00.379Z,80.96
2022-09-25T09:56:31.662Z,81.07
2022-09-25T09:59:03.096Z,79.80
2022-09-25T10:01:46.806Z,78.93
2022-09-25T10:04:18.702Z,79.63
2022-09-25T10:06:50.019Z,78.42
2022-09-25T10:09:16.894Z,77.66
2022-09-25T10:11:44.136Z,77.76
2022-09-25T10:14:15.448Z,77.27
2022-09-25T10:16:41.757Z,77.31
2022-09-25T10:19:28.829Z,78.23
2022-09-25T10:21:55.214Z,77.50
2022-09-25T10:24:41.087Z,78.55
2022-09-25T10:27:21.368Z,79.49
2022-09-25T10:30:00.473Z,80.19
2022-09-25T10:32:26.809Z,79.68
2022-09-25T10:34:53.408Z,78.33
2022-09-25T10:37:21.836Z,77.84
2022-09-25T10:40:02.056Z,78.14
2022-09-25T10:42:32.999Z,76.40
2022-09-25T10:44:59.295Z,77.48
2022-09-25T10:47:47.837Z,76.37
2022-09-25T10:50:14.313Z,77.29
2022-09-25T10:52:49.699Z,76.42
2022-09-25T10:55:36.362Z,77.68
2022-09-25T10:58:12.520Z,76.26
2022-09-25T11:00:41.820Z,75.21
2022-09-25T11:03:20.421Z,77.53
2022-09-25T11:05:52.848Z,76.29
2022-09-25T11:08:19.249Z,75.75
2022-09-25T11:10:51.135Z,76.20
2022-09-25T11:13:24.204Z,77.07
2022-09-25T11:15:53.418Z,77.51
2022-09-25T11:18:37.509Z,76.88
2022-09-25T11:21:05.165Z,77.05
2022-09-25T11:23:32.318Z,76.71
2022-09-25T11:26:06.102Z,77.99
2022-09-25T11:28:40.499Z,79.00
2022-09-25T11:31:28.548Z,77.16
2022-09-25T11:34:13.194Z,77.46
2022-09-25T11:36:58.297Z,77.29
2022-09-25T11:39:50.557Z,77.49
2022-09-25T11:42:21.324Z,77.56
2022-09-25T11:45:09.156Z,77.75
2022-09-25T11:47:39.960Z,79.61
2022-09-25T11:50:11.631Z,80.50
2022-09-25T11:53:01.255Z,80.24
2022-09-25T11:55:37.186Z,80.27
2022-09-25T11:58:16.864Z,79.85
2022-09-25T12:00:49.523Z,80.17
2022-09-25T12:03:18.683Z,80.06
2022-09-25T12:05:51.109Z,79.44
2022-09-25T12:08:41.497Z,79.29
2022-09-25T12:11:16.699Z,79.95
2022-09-25T12:13:58.695Z,79.51
2022-09-25T12:16:34.041Z,78.15
2022-09-25T12:19:03.364Z,77.81
2022-09-25T12:21:33.999Z,78.54
2022-09-25T12:24:12.200Z,76.75
2022-09-25T12:26:41.587Z,78.18
2022-09-25T12:29:31.526Z,76.97
2022-09-25T12:32:04.428Z,75.46
2022-09-25T12:34:50.629Z,73.48
2022-09-25T12:37:18.576Z,73.99
2022-09-25T12:39:47.559Z,73.41
2022-09-25T12:42:17.600Z,72.25
2022-09-25T12:44:47.391Z,71.71
2022-09-25T12:47:23.895Z,74.54
2022-09-25T12:50:00.862Z,71.78
2022-09-25T12:52:35.096Z,73.13
2022-09-25T12:55:10.189Z,72.42
2022-09-25T12:57:37.128Z,72.24
2022-09-25T13:00:03.521Z,71.98
2022-09-25T13:02:48.815Z,71.74
2022-09-25T13:05:23.976Z,71.82
2022-09-25T13:07:55.075Z,71.27
2022-09-25T13:10:24.929Z,71.81
2022-09-25T13:12:52.142Z,71.47
2022-09-25T13:15:21.723Z,70.97
2022-09-25T13:17:50.274Z,70.69
2022-09-25T13:20:29.515Z,71.30
2022-09-25T13:23:02.608Z,71.53
2022-09-25T13:25:29.853Z,71.29
2022-09-25T13:27:57.231Z,71.44
2022-09-25T13:30:25.206Z,72.13
2022-09-25T13:32:55.931Z,72.61
2022-09-25T13:35:23.039Z,71.62
2022-09-25T13:37:50.685Z,71.81
2022-09-25T13:40:37.933Z,73.18
2022-09-25T13:43:21.003Z,72.69
2022-09-25T13:45:51.664Z,73.11
2022-09-25T13:48:38.645Z,72.45
2022-09-25T13:51:17.982Z,72.02
2022-09-25T13:54:03.818Z,72.73
2022-09-25T13:56:42.250Z,72.63
2022-09-25T13:59:17.583Z,72.63
2022-09-25T14:01:45.779Z,73.31
2022-09-25T14:04:15.106Z,73.14
2022-09-25T14:06:42.282Z,72.87
2022-09-25T14:09:14.393Z,73.25
2022-09-25T14:11:43.417Z,72.65
2022-09-25T14:14:12.583Z,72.71
2022-09-25T14:16:52.394Z,73.13
2022-09-25T14:19:32.792Z,72.77
2022-09-25T14:22:00.339Z,73.38
2022-09-25T14:24:30.643Z,72.96
2022-09-25T14:26:58.456Z,74.21
2022-09-25T14:29:27.511Z,74.24
2022-09-25T14:31:56.637Z,74.14
2022-09-25T14:34:41.901Z,74.29
2022-09-25T14:37:17.349Z,73.85
2022-09-25T14:39:43.806Z,73.60
2022-09-25T14:42:29.020Z,73.70
2022-09-25T14:45:14.193Z,73.41
2022-09-25T14:47:44.497Z,73.10
2022-09-25T14:50:21.749Z,73.50
2022-09-25T14:52:50.377Z,72.50
2022-09-25T14:55:20.965Z,72.46
2022-09-25T14:57:48.416Z,72.65
2022-09-25T15:00:23.761Z,73.11
2022-09-25T15:02:52.880Z,74.02
2022-09-25T15:05:19.219Z,74.44
2022-09-25T15:07:46.547Z,74.33
2022-09-25T15:10:24.213Z,74.09
2022-09-25T15:12:51.443Z,76.12
2022-09-25T15:15:18.566Z,75.48
2022-09-25T15:17:49.578Z,75.01
2022-09-25T15:20:17.369Z,75.09
2022-09-25T15:22:46.109Z,75.06
2022-09-25T15:25:16.296Z,75.10
2022-09-25T15:27:42.693Z,76.22
2022-09-25T15:30:14.375Z,74.73
2022-09-25T15:32:40.860Z,75.51
2022-09-25T15:35:15.834Z,74.43
2022-09-25T15:37:42.162Z,75.25
2022-09-25T15:40:30.368Z,75.15
2022-09-25T15:42:57.131Z,74.03
2022-09-25T15:45:32.322Z,73.89
2022-09-25T15:47:59.748Z,74.47
2022-09-25T15:50:27.557Z,73.91
2022-09-25T15:52:55.572Z,73.54
2022-09-25T15:55:22.069Z,74.60
2022-09-25T15:57:49.938Z,73.76
2022-09-25T16:00:44.381Z,74.80
2022-09-25T16:03:32.115Z,74.16
2022-09-25T16:06:00.847Z,74.84
2022-09-25T16:08:32.252Z,73.70
2022-09-25T16:11:04.327Z,73.91
2022-09-25T16:13:30.627Z,73.85
2022-09-25T16:15:57.045Z,73.26
2022-09-25T16:18:23.598Z,74.54
2022-09-25T16:21:16.330Z,73.61
2022-09-25T16:23:43.248Z,74.72
2022-09-25T16:26:16.812Z,74.68
2022-09-25T16:28:49.750Z,74.64
2022-09-25T16:31:20.580Z,75.21
2022-09-25T16:33:50.825Z,75.89
2022-09-25T16:36:18.701Z,76.54
2022-09-25T16:39:03.655Z,77.34
2022-09-25T16:41:30.279Z,77.35
2022-09-25T16:44:14.398Z,77.42
2022-09-25T16:46:42.242Z,78.42
2022-09-25T16:49:08.671Z,78.18
2022-09-25T16:51:36.837Z,79.31
2022-09-25T16:54:03.341Z,78.60
2022-09-25T16:56:31.063Z,80.17
2022-09-25T16:58:58.262Z,79.20
2022-09-25T17:01:26.147Z,79.76
2022-09-25T17:03:52.842Z,80.51
2022-09-25T17:06:23.299Z,79.85
2022-09-25T17:08:50.138Z,81.41
2022-09-25T17:11:18.152Z,80.51
2022-09-25T17:13:45.392Z,80.74
2022-09-25T17:16:11.841Z,80.64
2022-09-25T17:18:38.256Z,81.43
2022-09-25T17:21:07.449Z,81.65
2022-09-25T17:23:33.796Z,81.61
2022-09-25T17:26:20.823Z,81.41
2022-09-25T17:28:47.333Z,81.27
2022-09-25T17:31:15.472Z,82.39
2022-09-25T17:33:42.095Z,82.60
2022-09-25T17:36:12.260Z,81.88
2022-09-25T17:38:38.947Z,79.98
2022-09-25T17:41:06.859Z,79.87
2022-09-25T17:43:33.737Z,79.32
2022-09-25T17:46:00.986Z,78.68
2022-09-25T17:48:28.804Z,78.50
2022-09-25T17:50:56.867Z,78.28
2022-09-25T17:53:24.598Z,78.18
2022-09-25T17:55:53.694Z,76.88
2022-09-25T17:58:21.892Z,77.74
2022-09-25T18:00:48.271Z,77.37
2022-09-25T18:03:15.382Z,78.50
2022-09-25T18:05:42.738Z,77.46
2022-09-25T18:08:09.428Z,78.90
2022-09-25T18:10:36.880Z,78.63
2022-09-25T18:13:04.358Z,79.33
2022-09-25T18:15:30.888Z,79.55
2022-09-25T18:17:57.254Z,80.42
2022-09-25T18:20:42.222Z,81.42
2022-09-25T18:23:08.767Z,82.35
2022-09-25T18:25:37.347Z,83.55
2022-09-25T18:28:03.730Z,83.65
2022-09-25T18:30:30.166Z,84.19
2022-09-25T18:32:56.486Z,85.29
2022-09-25T18:35:23.362Z,85.20
2022-09-25T18:37:49.714Z,85.29
2022-09-25T18:40:17.446Z,85.25
2022-09-25T18:42:43.916Z,85.68
2022-09-25T18:45:11.862Z,85.50
2022-09-25T18:47:42.281Z,85.64
2022-09-25T18:50:10.258Z,86.00
2022-09-25T18:52:37.438Z,84.63
2022-09-25T18:55:04.126Z,84.98
2022-09-25T18:57:30.435Z,85.95
2022-09-25T18:59:56.819Z,85.00
2022-09-25T19:02:24.767Z,85.91
2022-09-25T19:04:52.501Z,86.78
2022-09-25T19:07:19.696Z,85.99
2022-09-25T19:09:46.129Z,86.89
2022-09-25T19:12:15.818Z,86.29
2022-09-25T19:14:42.487Z,85.74
2022-09-25T19:17:09.179Z,85.17
2022-09-25T19:19:35.582Z,85.96
2022-09-25T19:22:01.982Z,85.50
2022-09-25T19:24:28.334Z,86.74
2022-09-25T19:26:54.964Z,86.05
2022-09-25T19:29:21.430Z,85.30
2022-09-25T19:31:48.638Z,84.79
2022-09-25T19:34:14.982Z,85.88
2022-09-25T19:36:41.879Z,84.83
2022-09-25T19:39:08.335Z,85.50
2022-09-25T19:41:35.529Z,85.02
2022-09-25T19:44:08.128Z,84.10
2022-09-25T19:46:40.172Z,82.84
2022-09-25T19:49:07.042Z,83.81
2022-09-25T19:51:33.622Z,82.85
2022-09-25T19:54:00.071Z,83.72
2022-09-25T19:56:26.942Z,83.50
2022-09-25T19:58:53.442Z,83.61
2022-09-25T20:01:26.009Z,83.69
2022-09-25T20:03:52.731Z,83.16
2022-09-25T20:06:19.032Z,83.54
2022-09-25T20:08:45.470Z,82.73
2022-09-25T20:11:13.234Z,83.60
2022-09-25T20:13:39.559Z,83.58
2022-09-25T20:16:10.297Z,84.42
2022-09-25T20:18:36.699Z,84.06
2022-09-25T20:21:03.866Z,84.14
2022-09-25T20:23:30.196Z,83.57
2022-09-25T20:26:08.206Z,84.44
2022-09-25T20:28:35.397Z,84.08
2022-09-25T20:31:06.163Z,84.09
2022-09-25T20:33:35.488Z,83.81
2022-09-25T20:36:03.487Z,83.82
2022-09-25T20:38:29.927Z,83.16
2022-09-25T20:40:59.763Z,83.67
2022-09-25T20:43:26.344Z,83.16
2022-09-25T20:46:00.951Z,83.14
2022-09-25T20:48:27.699Z,83.36
2022-09-25T20:50:54.757Z,82.43
2022-09-25T20:53:21.429Z,81.89
2022-09-25T20:55:47.733Z,83.21
2022-09-25T20:58:14.046Z,82.68
2022-09-25T21:00:40.374Z,82.66
2022-09-25T21:03:06.739Z,83.84
2022-09-25T21:05:36.879Z,83.80
2022-09-25T21:08:03.243Z,83.52
2022-09-25T21:10:29.554Z,82.89
2022-09-25T21:12:55.846Z,83.15
2022-09-25T21:15:22.426Z,82.89
2022-09-25T21:17:48.710Z,84.07
2022-09-25T21:20:15.706Z,82.33
2022-09-25T21:22:42.213Z,82.04
2022-09-25T21:25:09.008Z,82.80
2022-09-25T21:27:35.310Z,81.95
2022-09-25T21:30:01.623Z,82.07
2022-09-25T21:32:29.087Z,81.32
2022-09-25T21:34:55.391Z,79.25
2022-09-25T21:37:21.778Z,80.56
2022-09-25T21:39:48.118Z,78.28
2022-09-25T21:42:14.949Z,77.69
2022-09-25T21:44:41.296Z,79.88
2022-09-25T21:47:07.577Z,77.86
2022-09-25T21:49:33.945Z,79.00
2022-09-25T21:52:00.609Z,77.76
2022-09-25T21:54:28.361Z,76.65
2022-09-25T21:56:54.792Z,78.60
2022-09-25T21:59:21.201Z,77.41
2022-09-25T22:01:47.657Z,78.00
2022-09-25T22:04:14.598Z,78.42
2022-09-25T22:06:42.672Z,77.84
2022-09-25T22:09:10.783Z,77.63
2022-09-25T22:11:37.950Z,78.31
2022-09-25T22:14:04.973Z,78.97
2022-09-25T22:16:33.178Z,79.52
2022-09-25T22:19:06.874Z,78.13
2022-09-25T22:21:34.010Z,79.20
2022-09-25T22:24:00.877Z,77.82
2022-09-25T22:26:27.884Z,78.78
2022-09-25T22:28:54.588Z,78.92
2022-09-25T22:31:28.160Z,79.79
2022-09-25T22:33:56.026Z,78.31
2022-09-25T22:36:22.774Z,78.75
2022-09-25T22:38:49.939Z,78.32
2022-09-25T22:41:16.475Z,79.02
2022-09-25T22:43:42.827Z,78.55
2022-09-25T22:46:10.122Z,79.61
2022-09-25T22:48:36.677Z,79.17
2022-09-25T22:51:04.724Z,78.38
2022-09-25T22:53:33.356Z,79.57
2022-09-25T22:56:08.793Z,79.40
2022-09-25T22:58:35.140Z,80.08
2022-09-25T23:01:02.279Z,79.93
2022-09-25T23:03:28.726Z,80.28
2022-09-25T23:05:55.035Z,80.37
2022-09-25T23:08:21.329Z,80.18
2022-09-25T23:11:06.213Z,80.25
2022-09-25T23:13:33.802Z,80.64
2022-09-25T23:16:07.130Z,80.92
2022-09-25T23:18:34.834Z,80.77
2022-09-25T23:21:01.176Z,80.17
2022-09-25T23:23:27.503Z,80.15
2022-09-25T23:25:54.339Z,80.38
2022-09-25T23:28:20.622Z,80.44
2022-09-25T23:30:46.964Z,79.75
2022-09-25T23:33:13.286Z,79.35
2022-09-25T23:35:39.575Z,79.29
2022-09-25T23:38:05.888Z,78.64
2022-09-25T23:40:32.330Z,78.55
2022-09-25T23:42:58.713Z,77.72
2022-09-25T23:45:25.021Z,77.80
2022-09-25T23:47:51.331Z,77.25
2022-09-25T23:50:17.654Z,77.78
2022-09-25T23:52:43.958Z,76.73
2022-09-25T23:55:11.190Z,75.72
2022-09-25T23:57:37.509Z,76.45
